Alcalde

Dec. 14, 2019, 3 p.m.

  • imperial
Air Temperature RH Wind Speed Wind Direction Precipitation Solar Radiation
Date Time Max Min Mean Max Min Max Mean Mean Total Total
US/Mountain F F F % % MPH MPH deg. in. MJ/m^2
2019-12-13 15:00 53.42 52.52 53.06 30.0 28.0 19.1 9.71 278.0 0.0 1.256
2019-12-13 16:00 52.7 50.54 52.16 32.0 29.0 14.9 7.09 272.0 0.0 0.732
2019-12-13 17:00 50.54 46.94 48.74 36.0 32.0 10.49 4.3 281.0 0.0 0.087
2019-12-13 18:00 46.94 43.34 45.14 41.0 36.0 6.51 1.41 324.0 0.0 0.001
2019-12-13 19:00 43.88 40.46 42.62 49.0 40.0 5.79 1.99 35.0 0.0 0.0
2019-12-13 20:00 40.46 36.86 38.3 60.0 49.0 3.89 1.79 51.0 0.0 0.0
2019-12-13 21:00 37.76 36.68 37.22 62.0 59.0 4.3 1.41 17.0 0.0 0.0
2019-12-13 22:00 39.92 36.68 38.48 62.0 54.0 3.4 1.1 26.0 0.0 0.0
2019-12-13 23:00 36.68 34.88 35.78 71.0 62.0 2.59 0.6 57.0 0.0 0.0
2019-12-14 00:00 34.88 32.36 34.16 77.0 69.0 2.59 0.4 103.0 0.0 0.0
2019-12-14 01:00 33.08 30.02 32.0 83.0 74.0 3.2 1.1 86.0 0.0 0.0
2019-12-14 02:00 33.44 30.74 32.18 82.0 76.0 2.39 0.69 82.0 0.0 0.0
2019-12-14 03:00 32.18 31.1 31.46 86.0 82.0 1.99 0.4 289.0 0.0 0.0
2019-12-14 04:00 32.9 31.82 32.36 86.0 80.0 3.69 0.81 219.0 0.0 0.0
2019-12-14 05:00 32.9 30.92 32.18 85.0 80.0 2.8 0.6 73.0 0.0 0.0
2019-12-14 06:00 30.92 28.58 29.66 90.0 85.0 2.51 0.6 1.0 0.0 0.0
2019-12-14 07:00 32.36 30.2 31.46 90.0 84.0 8.5 1.41 79.0 0.0 0.0
2019-12-14 08:00 31.46 30.38 31.1 89.0 86.0 2.8 1.1 88.0 0.0 0.081
2019-12-14 09:00 35.96 30.38 33.08 89.0 75.0 2.91 0.6 256.0 0.0 0.348
2019-12-14 10:00 42.8 35.96 40.1 75.0 51.0 4.9 1.1 202.0 0.0 1.112
2019-12-14 11:00 47.12 42.8 44.96 51.0 46.0 7.49 3.0 207.0 0.0 1.255
2019-12-14 12:00 50.9 47.12 48.92 48.0 44.0 8.01 3.89 214.0 0.0 1.301
2019-12-14 13:00 52.52 50.54 51.8 45.0 42.0 7.0 2.19 248.0 0.0 0.768
2019-12-14 14:00 53.78 51.98 52.88 44.0 40.0 6.2 2.3 303.0 0.0 0.685
2019-12-14 15:00 54.14 52.7 52.88 42.0 39.0 5.91 2.3 251.0 0.0 0.486

Data is presented as is, with no certification of correctness. DO NOT USE IN LEGAL PROCEEDINGS.